Time;durP1;ratioP1;P1;durP2;ratioP2;P2;SDS_P1;SDS_P2;PMS_P1;PMS_P2;Temp;Humidity;BMP_temperature;BMP_pressure;BME280_temperature;BME280_humidity;BME280_pressure;Samples;Min_cycle;Max_cycle;Signal;HPM_P1;HPM_P2
2022/06/19 00:02:15;;;;;;;4.25;1.90;;;26.40;96.70;;;;;;4966991;28;20043;-80
2022/06/19 00:04:44;;;;;;;5.95;2.00;;;26.50;96.70;;;;;;4953666;28;20059;-79
2022/06/19 00:07:13;;;;;;;2.88;1.85;;;26.40;96.70;;;;;;4944216;28;20102;-80
2022/06/19 00:09:42;;;;;;;2.55;1.58;;;26.30;96.70;;;;;;4966068;28;20139;-80
2022/06/19 00:12:11;;;;;;;4.18;1.70;;;26.30;96.70;;;;;;4963634;28;20106;-80
2022/06/19 00:14:42;;;;;;;1.75;1.55;;;26.20;96.70;;;;;;4948841;28;20058;-81
2022/06/19 00:17:10;;;;;;;3.17;2.00;;;26.20;96.70;;;;;;4964703;28;20118;-80
2022/06/19 00:19:39;;;;;;;2.28;2.00;;;26.30;96.60;;;;;;4951736;28;20425;-80
2022/06/19 00:22:07;;;;;;;4.80;2.17;;;26.20;96.70;;;;;;4964001;28;20073;-80
2022/06/19 00:24:36;;;;;;;5.22;2.63;;;26.10;96.70;;;;;;4957680;28;20116;-80
2022/06/19 00:27:04;;;;;;;3.35;2.10;;;26.10;96.70;;;;;;4968394;28;20051;-80
2022/06/19 00:29:33;;;;;;;4.70;2.13;;;26.20;96.70;;;;;;4950569;28;20141;-80
2022/06/19 00:32:07;;;;;;;5.15;1.80;;;26.20;96.70;;;;;;4962788;28;20086;-81
2022/06/19 00:34:37;;;;;;;5.13;1.60;;;26.00;96.70;;;;;;4935698;28;20062;-81
2022/06/19 00:37:06;;;;;;;3.28;1.88;;;26.00;96.70;;;;;;4965834;28;20175;-81
2022/06/19 00:39:42;;;;;;;2.75;1.80;;;25.80;96.70;;;;;;4953912;28;20057;-81
2022/06/19 00:42:14;;;;;;;3.53;1.60;;;25.90;96.70;;;;;;4945104;28;20798;-81
2022/06/19 00:44:47;;;;;;;4.95;1.55;;;25.80;96.70;;;;;;4952150;28;20047;-81
2022/06/19 00:47:20;;;;;;;3.75;1.85;;;25.70;96.70;;;;;;4951090;28;20066;-81
2022/06/19 00:49:51;;;;;;;1.40;1.27;;;25.70;96.70;;;;;;4966679;28;20055;-82
2022/06/19 00:52:23;;;;;;;3.03;1.48;;;25.80;96.70;;;;;;4952093;28;20489;-81
2022/06/19 00:54:56;;;;;;;2.80;1.60;;;25.70;96.70;;;;;;4941712;28;20051;-80
2022/06/19 00:57:27;;;;;;;2.65;1.60;;;25.70;96.70;;;;;;4942928;29;20485;-80
2022/06/19 00:59:59;;;;;;;1.98;1.20;;;25.50;96.70;;;;;;4948371;28;20405;-79
2022/06/19 01:02:30;;;;;;;2.50;1.40;;;25.60;96.70;;;;;;4951487;28;20378;-79
2022/06/19 01:05:00;;;;;;;2.88;1.40;;;25.60;96.70;;;;;;4949853;28;20053;-80
2022/06/19 01:07:29;;;;;;;2.95;1.20;;;25.60;96.70;;;;;;4945956;29;20122;-80
2022/06/19 01:09:57;;;;;;;2.20;1.25;;;25.50;96.70;;;;;;4949436;28;20058;-80
2022/06/19 01:12:26;;;;;;;2.35;1.05;;;25.50;96.70;;;;;;4953006;28;20042;-80
2022/06/19 01:14:59;;;;;;;2.97;1.20;;;25.40;96.70;;;;;;4963146;28;20061;-80
2022/06/19 01:17:33;;;;;;;2.30;1.40;;;25.50;96.70;;;;;;4963695;28;20121;-80
2022/06/19 01:20:04;;;;;;;2.75;1.27;;;25.60;96.70;;;;;;4967208;28;20504;-80
2022/06/19 01:22:37;;;;;;;2.00;1.40;;;25.60;96.70;;;;;;4951241;28;20048;-81
2022/06/19 01:25:10;;;;;;;1.73;1.50;;;25.70;96.70;;;;;;4950651;28;20051;-80
2022/06/19 01:30:29;;;;;;;2.17;1.08;;;25.40;96.70;;;;;;4952876;28;20055;-80
2022/06/19 01:32:59;;;;;;;2.65;1.40;;;25.30;96.70;;;;;;4967608;28;20144;-80
2022/06/19 01:35:32;;;;;;;1.92;1.23;;;25.20;96.70;;;;;;4949541;28;20046;-80
2022/06/19 01:38:08;;;;;;;2.83;1.10;;;25.20;96.70;;;;;;4969875;28;20728;-80
2022/06/19 01:40:41;;;;;;;1.42;1.15;;;25.10;96.70;;;;;;4932735;28;20100;-80
2022/06/19 01:43:10;;;;;;;2.00;1.27;;;25.10;96.70;;;;;;4948278;28;20077;-80
2022/06/19 01:45:43;;;;;;;2.88;1.30;;;25.10;96.70;;;;;;4931733;28;20047;-81
2022/06/19 01:48:11;;;;;;;2.65;1.67;;;25.00;96.70;;;;;;4964547;28;20055;-80
2022/06/19 01:50:42;;;;;;;2.67;1.35;;;24.90;96.70;;;;;;4947884;28;20055;-80
2022/06/19 01:53:18;;;;;;;2.78;1.55;;;24.90;96.70;;;;;;4947547;28;20423;-80
2022/06/19 01:55:48;;;;;;;3.53;1.77;;;24.90;96.70;;;;;;4948481;28;20062;-80
2022/06/19 01:58:18;;;;;;;2.22;1.40;;;24.90;96.70;;;;;;4964968;28;20066;-80
2022/06/19 02:00:48;;;;;;;3.50;1.75;;;24.70;96.70;;;;;;4967501;28;20050;-80
2022/06/19 02:03:25;;;;;;;1.83;1.25;;;24.70;96.70;;;;;;4965520;28;20137;-80
2022/06/19 02:05:54;;;;;;;2.85;1.30;;;24.70;96.70;;;;;;4970199;28;20101;-80
2022/06/19 02:08:23;;;;;;;3.33;1.52;;;24.70;96.70;;;;;;4948405;28;20034;-80
2022/06/19 02:10:53;;;;;;;3.15;1.73;;;24.70;96.70;;;;;;4967919;28;20051;-80
2022/06/19 02:13:23;;;;;;;3.88;1.90;;;24.80;96.70;;;;;;4949222;28;20047;-80
2022/06/19 02:15:53;;;;;;;4.60;1.30;;;24.70;96.70;;;;;;4970500;28;20070;-79
2022/06/19 02:18:23;;;;;;;1.77;1.60;;;24.60;96.70;;;;;;4960926;28;21081;-80
2022/06/19 02:20:52;;;;;;;3.03;1.50;;;24.50;96.70;;;;;;4969554;28;20620;-80
2022/06/19 02:23:24;;;;;;;3.25;1.33;;;24.40;96.70;;;;;;4968557;28;20046;-80
2022/06/19 02:25:53;;;;;;;1.70;1.20;;;24.50;96.70;;;;;;4936115;28;20781;-80
2022/06/19 02:28:22;;;;;;;2.95;1.50;;;24.40;96.70;;;;;;4967275;28;20505;-80
2022/06/19 02:30:50;;;;;;;2.45;1.42;;;24.30;96.70;;;;;;4950080;28;20158;-80
2022/06/19 02:33:23;;;;;;;2.42;1.38;;;24.40;96.70;;;;;;4969476;28;20035;-80
2022/06/19 02:35:51;;;;;;;2.08;1.50;;;24.20;96.70;;;;;;4963892;28;21530;-80
2022/06/19 02:38:21;;;;;;;1.42;1.30;;;24.20;96.70;;;;;;4965288;28;20074;-80
2022/06/19 02:40:59;;;;;;;2.67;1.20;;;24.20;96.70;;;;;;4948528;28;20109;-80
2022/06/19 02:43:30;;;;;;;2.03;1.27;;;24.10;96.70;;;;;;4964428;28;20065;-80
2022/06/19 02:45:58;;;;;;;3.60;1.00;;;24.10;96.70;;;;;;4970045;28;20046;-81
2022/06/19 02:48:29;;;;;;;2.40;1.30;;;24.00;96.70;;;;;;4970345;28;20051;-80
2022/06/19 02:50:58;;;;;;;3.70;1.65;;;23.90;96.70;;;;;;4950759;28;20501;-80
2022/06/19 02:53:27;;;;;;;3.08;1.42;;;23.90;96.70;;;;;;4967594;28;20086;-80
2022/06/19 02:55:57;;;;;;;4.00;1.50;;;24.00;96.70;;;;;;4950413;28;20070;-80
2022/06/19 02:58:26;;;;;;;1.42;1.30;;;24.00;96.70;;;;;;4953117;28;20043;-80
2022/06/19 03:00:54;;;;;;;2.88;1.27;;;24.00;96.70;;;;;;4952208;28;20107;-80
2022/06/19 03:03:25;;;;;;;3.65;1.52;;;24.00;96.70;;;;;;4966987;28;20620;-80
2022/06/19 03:05:53;;;;;;;3.03;1.20;;;24.00;96.70;;;;;;4971305;28;20051;-80
2022/06/19 03:08:21;;;;;;;1.80;1.20;;;24.00;96.70;;;;;;4974923;28;20043;-80
2022/06/19 03:10:49;;;;;;;3.08;1.52;;;23.80;96.70;;;;;;4972079;28;20061;-80
2022/06/19 03:13:20;;;;;;;3.35;1.33;;;23.90;96.70;;;;;;4953141;28;20051;-80
2022/06/19 03:15:57;;;;;;;2.90;1.30;;;24.00;96.70;;;;;;4952920;28;20062;-81
2022/06/19 03:18:26;;;;;;;3.28;1.63;;;23.90;96.70;;;;;;4972753;28;20043;-80
2022/06/19 03:20:55;;;;;;;2.28;1.23;;;23.70;96.70;;;;;;4965234;28;20452;-80
2022/06/19 03:23:23;;;;;;;3.47;0.95;;;23.60;96.70;;;;;;4966204;28;20043;-80
2022/06/19 03:25:51;;;;;;;1.45;1.10;;;23.50;96.70;;;;;;4973935;28;20420;-80
2022/06/19 03:28:20;;;;;;;2.85;1.20;;;23.40;96.70;;;;;;4952762;28;20047;-80
2022/06/19 03:30:51;;;;;;;2.55;1.00;;;23.50;96.70;;;;;;4956839;28;20112;-80
2022/06/19 03:33:19;;;;;;;2.17;1.27;;;23.50;96.70;;;;;;4971033;28;20094;-80
2022/06/19 03:35:47;;;;;;;3.28;1.50;;;23.60;96.70;;;;;;4975769;28;20062;-81
2022/06/19 03:38:15;;;;;;;1.85;1.38;;;23.60;96.70;;;;;;4967069;28;20906;-80
2022/06/19 03:40:43;;;;;;;3.38;1.05;;;23.70;96.70;;;;;;4975495;28;20045;-80
2022/06/19 03:43:11;;;;;;;1.77;1.00;;;23.60;96.70;;;;;;4969242;28;20077;-80
2022/06/19 03:45:41;;;;;;;2.83;1.23;;;23.50;96.70;;;;;;4969488;28;20133;-80
2022/06/19 03:48:12;;;;;;;3.08;1.10;;;23.40;96.70;;;;;;4969028;28;20098;-80
2022/06/19 03:50:41;;;;;;;4.03;1.38;;;23.40;96.70;;;;;;4956674;28;20122;-80
2022/06/19 03:53:09;;;;;;;1.90;1.20;;;23.30;96.70;;;;;;4956808;28;20608;-80
2022/06/19 03:55:37;;;;;;;1.38;1.20;;;23.30;96.70;;;;;;4950401;28;20050;-80
2022/06/19 03:58:05;;;;;;;3.80;1.35;;;23.30;96.70;;;;;;4949623;28;20141;-80
2022/06/19 04:00:34;;;;;;;2.35;1.23;;;23.30;96.70;;;;;;4949646;28;20042;-80
2022/06/19 04:03:03;;;;;;;4.03;1.38;;;23.50;96.70;;;;;;4965083;28;20405;-80
2022/06/19 04:05:32;;;;;;;1.77;1.23;;;23.60;96.70;;;;;;4967209;28;20047;-80
2022/06/19 04:08:00;;;;;;;2.90;1.30;;;23.50;96.70;;;;;;4966608;28;20059;-80
2022/06/19 04:10:28;;;;;;;1.70;1.10;;;23.40;96.70;;;;;;4967797;28;20073;-80
2022/06/19 04:12:56;;;;;;;2.38;1.15;;;23.40;96.70;;;;;;4963580;28;20042;-80
2022/06/19 04:15:24;;;;;;;4.78;1.17;;;23.30;96.70;;;;;;4963831;28;20059;-80
2022/06/19 04:17:52;;;;;;;1.52;1.20;;;23.30;96.70;;;;;;4950298;28;20483;-80
2022/06/19 04:20:21;;;;;;;2.47;1.20;;;23.20;96.70;;;;;;4970810;28;20631;-80
2022/06/19 04:22:49;;;;;;;2.95;1.48;;;23.20;96.70;;;;;;4969538;28;20043;-80
2022/06/19 04:25:18;;;;;;;2.70;1.38;;;23.30;96.70;;;;;;4961462;28;20050;-80
2022/06/19 04:27:45;;;;;;;2.35;1.10;;;23.40;96.70;;;;;;4965212;28;20779;-80
2022/06/19 04:30:21;;;;;;;4.32;1.08;;;23.20;96.70;;;;;;4965934;28;20078;-80
2022/06/19 04:32:48;;;;;;;1.98;1.05;;;23.20;96.70;;;;;;4952047;28;20051;-80
2022/06/19 04:35:17;;;;;;;2.85;1.20;;;23.30;96.70;;;;;;4969261;28;20057;-80
2022/06/19 04:37:46;;;;;;;3.45;1.40;;;23.20;96.70;;;;;;4942202;28;20042;-81
2022/06/19 04:40:14;;;;;;;3.50;1.38;;;23.20;96.70;;;;;;4966606;28;20045;-80
2022/06/19 04:42:42;;;;;;;3.00;1.38;;;23.30;96.70;;;;;;4949344;28;20811;-80
2022/06/19 04:45:11;;;;;;;3.17;1.30;;;23.40;96.70;;;;;;4965854;28;20437;-80
2022/06/19 04:47:39;;;;;;;1.50;1.38;;;23.30;96.70;;;;;;4950388;28;20054;-80
2022/06/19 04:50:09;;;;;;;3.20;1.38;;;23.30;96.70;;;;;;4969265;28;20428;-80
2022/06/19 04:52:37;;;;;;;2.67;1.50;;;23.20;96.70;;;;;;4968380;28;20516;-80
2022/06/19 04:55:07;;;;;;;3.83;1.13;;;23.20;96.70;;;;;;4948645;28;20784;-80
2022/06/19 04:57:35;;;;;;;2.55;1.15;;;23.20;96.70;;;;;;4964230;28;20461;-80
2022/06/19 05:00:06;;;;;;;3.38;1.48;;;23.30;96.70;;;;;;4947273;28;20051;-80
2022/06/19 05:02:34;;;;;;;2.80;1.40;;;23.30;96.70;;;;;;4950269;28;20456;-80
2022/06/19 05:05:03;;;;;;;2.35;1.20;;;23.40;96.70;;;;;;4940147;28;20074;-81
2022/06/19 05:07:31;;;;;;;1.83;1.25;;;23.60;96.70;;;;;;4953138;28;20413;-81
2022/06/19 05:09:58;;;;;;;3.30;1.15;;;23.50;96.70;;;;;;4971899;28;20047;-80
2022/06/19 05:12:28;;;;;;;4.88;1.30;;;23.50;96.70;;;;;;4968346;28;20097;-80
2022/06/19 05:14:56;;;;;;;4.65;1.30;;;23.60;96.70;;;;;;4964084;28;20054;-80
2022/06/19 05:17:24;;;;;;;3.97;1.50;;;23.60;96.70;;;;;;4954219;28;20473;-80
2022/06/19 05:19:52;;;;;;;3.30;1.38;;;23.70;96.70;;;;;;4951003;28;20559;-80
2022/06/19 05:22:20;;;;;;;3.53;1.10;;;23.80;96.70;;;;;;4949955;28;20085;-82
2022/06/19 05:24:48;;;;;;;1.88;1.30;;;23.80;96.70;;;;;;4970465;28;20150;-81
2022/06/19 05:27:17;;;;;;;3.90;1.15;;;23.90;96.70;;;;;;4966121;28;20133;-81
2022/06/19 05:29:47;;;;;;;1.88;1.13;;;23.80;96.70;;;;;;4968559;28;20042;-79
2022/06/19 05:32:15;;;;;;;2.95;1.33;;;23.90;96.70;;;;;;4954280;28;20055;-81
2022/06/19 05:34:46;;;;;;;4.07;1.20;;;23.80;96.70;;;;;;4963493;28;20555;-79
2022/06/19 05:37:15;;;;;;;3.22;1.75;;;23.70;96.70;;;;;;4944020;28;20047;-79
2022/06/19 05:39:44;;;;;;;3.33;1.42;;;23.80;96.70;;;;;;4954445;28;20058;-81
2022/06/19 05:42:19;;;;;;;3.88;1.20;;;23.90;96.70;;;;;;4950991;28;20129;-80
2022/06/19 05:44:49;;;;;;;4.07;1.13;;;23.90;96.70;;;;;;4967643;28;20046;-83
2022/06/19 05:47:18;;;;;;;7.15;5.78;;;23.90;96.70;;;;;;4946258;28;20043;-79
2022/06/19 05:49:48;;;;;;;3.28;2.13;;;23.80;96.70;;;;;;4964707;28;20034;-81
2022/06/19 05:52:18;;;;;;;2.33;1.30;;;23.80;96.70;;;;;;4964619;28;20050;-82
2022/06/19 05:54:47;;;;;;;4.28;1.10;;;23.60;96.70;;;;;;4958390;28;20050;-81
2022/06/19 05:57:15;;;;;;;3.63;1.17;;;23.60;96.70;;;;;;4965221;28;20043;-81
2022/06/19 05:59:44;;;;;;;3.10;1.15;;;23.70;96.70;;;;;;4966209;28;20046;-82
2022/06/19 06:02:16;;;;;;;4.25;1.08;;;23.80;96.70;;;;;;4969529;28;20039;-80
2022/06/19 06:04:45;;;;;;;2.40;1.00;;;23.90;96.70;;;;;;4949549;28;20424;-80
2022/06/19 06:07:13;;;;;;;3.08;1.05;;;23.90;96.70;;;;;;4965561;28;20106;-82
2022/06/19 06:09:42;;;;;;;2.47;0.95;;;24.00;96.70;;;;;;4944014;28;20047;-83
2022/06/19 06:12:10;;;;;;;1.73;1.00;;;24.30;96.70;;;;;;4965306;28;20062;-81
2022/06/19 06:14:38;;;;;;;1.90;0.95;;;24.30;96.70;;;;;;4952068;28;20093;-82
2022/06/19 06:17:06;;;;;;;1.83;0.98;;;24.30;96.70;;;;;;4968032;28;20042;-82
2022/06/19 06:19:36;;;;;;;3.60;1.10;;;24.30;96.70;;;;;;4965491;28;20602;-82
2022/06/19 06:22:05;;;;;;;1.30;0.85;;;24.50;96.70;;;;;;4968885;28;20082;-81
2022/06/19 06:24:33;;;;;;;3.53;1.02;;;24.50;96.70;;;;;;4972798;28;20077;-81
2022/06/19 06:27:05;;;;;;;4.15;1.45;;;24.50;96.70;;;;;;4968936;28;20105;-82
2022/06/19 06:29:33;;;;;;;4.22;1.10;;;24.60;96.70;;;;;;4952384;28;20054;-81
2022/06/19 06:32:02;;;;;;;2.25;1.20;;;24.60;96.70;;;;;;4974309;28;20519;-81
2022/06/19 06:34:30;;;;;;;3.92;1.42;;;24.60;96.70;;;;;;4969644;28;20050;-81
2022/06/19 06:37:00;;;;;;;3.65;1.45;;;24.70;96.70;;;;;;4955947;28;20047;-80
2022/06/19 06:39:28;;;;;;;2.22;1.45;;;24.80;96.70;;;;;;4968274;28;20057;-81
2022/06/19 06:41:56;;;;;;;3.58;1.70;;;24.80;96.70;;;;;;4968322;28;20043;-81
2022/06/19 06:44:25;;;;;;;2.28;1.60;;;24.90;96.70;;;;;;4958742;28;20049;-81
2022/06/19 06:46:53;;;;;;;3.83;1.75;;;25.00;96.70;;;;;;4968670;28;20072;-79
2022/06/19 06:49:21;;;;;;;6.35;2.85;;;25.20;96.70;;;;;;4972084;28;20051;-79
2022/06/19 06:51:49;;;;;;;5.53;2.90;;;25.30;96.70;;;;;;4965331;28;20085;-78
2022/06/19 06:54:19;;;;;;;3.95;2.58;;;25.30;96.70;;;;;;4950548;28;20149;-79
2022/06/19 06:56:47;;;;;;;1.83;1.35;;;25.30;96.70;;;;;;4950114;28;20563;-79
2022/06/19 06:59:16;;;;;;;3.53;2.03;;;25.30;94.30;;;;;;4968689;28;20134;-79
2022/06/19 07:01:44;;;;;;;3.22;1.25;;;25.40;96.30;;;;;;4953682;28;20050;-80
2022/06/19 07:04:13;;;;;;;2.05;1.40;;;25.40;94.40;;;;;;4958463;28;20053;-81
2022/06/19 07:06:41;;;;;;;2.03;1.23;;;25.40;94.90;;;;;;4959977;28;20050;-81
2022/06/19 07:09:09;;;;;;;14.20;12.10;;;25.60;95.60;;;;;;4975303;28;20366;-81
2022/06/19 07:11:41;;;;;;;11.38;7.95;;;25.70;95.10;;;;;;4968746;28;20054;-81
2022/06/19 07:14:10;;;;;;;4.85;3.55;;;25.80;95.40;;;;;;4969390;28;20050;-82
2022/06/19 07:16:38;;;;;;;2.30;1.60;;;25.90;94.70;;;;;;4970778;28;20051;-81
2022/06/19 07:19:07;;;;;;;4.20;1.20;;;25.90;94.20;;;;;;4973680;28;20049;-82
2022/06/19 07:21:36;;;;;;;3.95;1.30;;;26.00;93.80;;;;;;4955752;28;20047;-82
2022/06/19 07:24:04;;;;;;;1.48;1.00;;;26.00;94.50;;;;;;4935945;28;20143;-81
2022/06/19 07:26:33;;;;;;;2.00;1.00;;;26.00;93.60;;;;;;4951578;28;20051;-82
2022/06/19 07:29:03;;;;;;;4.10;1.00;;;26.20;93.30;;;;;;4954649;28;20051;-84
2022/06/19 07:31:35;;;;;;;11.35;1.73;;;26.20;93.80;;;;;;4977846;28;20373;-85
2022/06/19 07:34:04;;;;;;;4.13;1.02;;;26.30;93.50;;;;;;4956227;28;20065;-82
2022/06/19 07:36:33;;;;;;;2.97;1.10;;;26.40;92.80;;;;;;4967853;28;20167;-81
2022/06/19 07:39:01;;;;;;;4.72;1.00;;;26.40;93.60;;;;;;4950582;28;20500;-80
2022/06/19 07:41:30;;;;;;;1.73;1.10;;;26.50;94.00;;;;;;4956162;28;20038;-81
2022/06/19 07:43:58;;;;;;;1.30;0.70;;;26.50;93.50;;;;;;4951237;28;20047;-82
2022/06/19 07:46:29;;;;;;;3.28;0.88;;;26.70;92.80;;;;;;4954935;28;20460;-81
2022/06/19 07:51:44;;;;;;;1.58;0.73;;;26.80;92.20;;;;;;4965886;28;20078;-81
2022/06/19 07:54:13;;;;;;;1.83;0.70;;;26.90;92.20;;;;;;4952283;28;20078;-81
2022/06/19 07:56:41;;;;;;;2.30;0.80;;;27.00;91.70;;;;;;4967329;28;20492;-82
2022/06/19 07:59:09;;;;;;;2.78;0.82;;;27.10;90.70;;;;;;4966392;28;20050;-80
2022/06/19 08:01:39;;;;;;;2.47;0.77;;;27.20;90.50;;;;;;4952159;28;20050;-83
2022/06/19 08:04:27;;;;;;;2.30;0.70;;;27.30;89.30;;;;;;4971024;28;20047;-81
2022/06/19 08:06:55;;;;;;;2.75;0.80;;;27.30;89.60;;;;;;4966403;28;20574;-82
2022/06/19 08:09:24;;;;;;;1.45;0.77;;;27.30;89.50;;;;;;4951397;28;20059;-84
2022/06/19 08:11:52;;;;;;;2.60;0.60;;;27.50;89.80;;;;;;4968590;28;20537;-83
2022/06/19 08:14:20;;;;;;;2.40;0.77;;;27.60;88.70;;;;;;4931705;29;20107;-82
2022/06/19 08:16:50;;;;;;;1.35;0.65;;;27.60;87.60;;;;;;4969851;28;20046;-83
2022/06/19 08:19:21;;;;;;;3.72;0.70;;;27.60;88.10;;;;;;4966480;28;20563;-82
2022/06/19 08:21:49;;;;;;;2.53;0.90;;;27.80;87.80;;;;;;4967245;28;20043;-84
2022/06/19 08:24:17;;;;;;;1.88;0.65;;;27.80;87.40;;;;;;4951613;28;20464;-80
2022/06/19 08:26:45;;;;;;;2.15;0.88;;;27.80;87.10;;;;;;4966527;28;20098;-82
2022/06/19 08:29:14;;;;;;;1.20;0.70;;;27.80;86.20;;;;;;4945619;28;20074;-83
2022/06/19 08:31:42;;;;;;;4.45;1.20;;;28.00;85.90;;;;;;4963541;28;20579;-83
2022/06/19 08:34:11;;;;;;;2.28;1.13;;;28.00;85.30;;;;;;4967203;28;20774;-84
2022/06/19 08:36:40;;;;;;;2.90;2.42;;;28.00;86.30;;;;;;4970714;28;20051;-84
2022/06/19 08:39:13;;;;;;;1.40;1.00;;;28.10;86.10;;;;;;4978273;28;20618;-83
2022/06/19 08:42:02;;;;;;;1.98;1.05;;;28.20;87.30;;;;;;4950858;28;20496;-83
2022/06/19 08:45:03;;;;;;;1.65;0.70;;;28.40;84.80;;;;;;4951727;28;20058;-83
2022/06/19 08:47:52;;;;;;;1.38;0.50;;;28.50;84.00;;;;;;4971020;28;20054;-83
2022/06/19 08:50:33;;;;;;;3.00;1.23;;;28.50;84.80;;;;;;4964254;28;20051;-83
2022/06/19 08:53:17;;;;;;;2.10;0.50;;;28.60;85.50;;;;;;4949621;28;20043;-83
2022/06/19 08:55:52;;;;;;;4.13;0.80;;;28.70;83.90;;;;;;4963007;28;20109;-79
2022/06/19 08:58:28;;;;;;;0.40;0.40;;;28.70;82.90;;;;;;4966559;28;20748;-82
2022/06/19 09:01:02;;;;;;;0.65;0.50;;;28.80;84.30;;;;;;4967118;28;20053;-82
2022/06/19 09:06:39;;;;;;;2.50;0.52;;;29.10;83.10;;;;;;4958131;28;20103;-81
2022/06/19 09:09:44;;;;;;;1.73;0.50;;;29.00;82.60;;;;;;4950199;28;20055;-78
2022/06/19 09:12:28;;;;;;;0.93;0.45;;;29.20;83.90;;;;;;4955338;28;20073;-79
2022/06/19 09:15:07;;;;;;;1.80;0.60;;;29.40;81.40;;;;;;4966764;28;20054;-80
2022/06/19 09:17:44;;;;;;;2.28;0.90;;;29.50;81.40;;;;;;4972254;28;20493;-79
2022/06/19 09:20:27;;;;;;;2.45;0.70;;;29.60;81.60;;;;;;4961958;28;20698;-80
2022/06/19 09:23:26;;;;;;;0.93;0.43;;;29.80;81.10;;;;;;4964958;28;20589;-81
2022/06/19 09:25:58;;;;;;;1.80;0.60;;;29.90;80.90;;;;;;4929261;28;20409;-81
2022/06/19 09:28:33;;;;;;;0.95;0.50;;;29.90;80.60;;;;;;4943801;29;20158;-81
2022/06/19 09:31:07;;;;;;;1.38;0.50;;;30.00;80.80;;;;;;4949773;28;20605;-80
2022/06/19 09:33:42;;;;;;;0.75;0.40;;;30.10;80.60;;;;;;4943625;28;20055;-81
2022/06/19 09:36:18;;;;;;;1.20;0.57;;;30.10;80.60;;;;;;4948039;28;20062;-81
2022/06/19 09:38:56;;;;;;;0.70;0.45;;;30.20;80.70;;;;;;4944817;28;20507;-80
2022/06/19 09:41:31;;;;;;;0.90;0.52;;;30.30;80.70;;;;;;4941553;28;20042;-82
2022/06/19 09:44:06;;;;;;;1.88;0.70;;;30.40;81.20;;;;;;4949207;28;20053;-80
2022/06/19 09:46:41;;;;;;;1.58;0.32;;;30.50;80.90;;;;;;4948924;28;20047;-81
2022/06/19 09:49:15;;;;;;;1.35;0.70;;;30.40;81.00;;;;;;4944920;28;20639;-79
2022/06/19 09:51:54;;;;;;;4.05;0.63;;;30.50;80.40;;;;;;4945571;28;20680;-79
2022/06/19 09:54:32;;;;;;;1.58;0.50;;;30.60;81.10;;;;;;4945831;28;20119;-80
2022/06/19 09:57:09;;;;;;;0.40;0.40;;;30.80;80.70;;;;;;4940496;28;20047;-79
2022/06/19 09:59:43;;;;;;;0.90;0.38;;;31.00;80.30;;;;;;4958433;28;20051;-79
2022/06/19 10:02:17;;;;;;;0.80;0.50;;;31.10;79.50;;;;;;4945555;28;20062;-82
2022/06/19 10:04:48;;;;;;;1.27;0.47;;;31.10;79.70;;;;;;4961979;28;20612;-79
2022/06/19 10:07:23;;;;;;;1.35;0.50;;;31.10;79.90;;;;;;4961358;28;20051;-80
2022/06/19 10:09:58;;;;;;;1.77;0.90;;;31.10;79.80;;;;;;4945026;28;20137;-79
2022/06/19 10:12:32;;;;;;;2.50;0.50;;;31.20;79.90;;;;;;4961146;28;20707;-79
2022/06/19 10:15:04;;;;;;;2.35;0.80;;;31.30;79.40;;;;;;4932775;29;20056;-81
2022/06/19 10:17:44;;;;;;;3.50;1.55;;;31.40;80.60;;;;;;4946480;28;20508;-81
2022/06/19 10:20:16;;;;;;;2.25;1.33;;;31.60;79.90;;;;;;4945538;28;20094;-82
2022/06/19 10:22:58;;;;;;;1.27;0.77;;;31.60;79.50;;;;;;4944108;28;20135;-81
2022/06/19 10:25:44;;;;;;;1.88;0.60;;;31.70;78.70;;;;;;4933919;28;20055;-81
2022/06/19 10:28:31;;;;;;;2.47;0.70;;;31.60;78.90;;;;;;4948964;28;20117;-81
2022/06/19 10:31:08;;;;;;;1.10;0.80;;;31.70;79.10;;;;;;4944231;28;20051;-81
2022/06/19 10:33:49;;;;;;;1.98;0.55;;;31.80;78.90;;;;;;4950064;28;20591;-81
2022/06/19 10:36:25;;;;;;;2.22;1.00;;;31.90;78.30;;;;;;4964570;28;20035;-81
2022/06/19 10:39:10;;;;;;;1.52;1.20;;;32.00;78.40;;;;;;4968633;28;20050;-81
2022/06/19 10:42:04;;;;;;;1.88;0.60;;;32.10;77.90;;;;;;4961324;28;20516;-81
2022/06/19 10:44:50;;;;;;;1.65;0.50;;;32.10;78.00;;;;;;4955356;28;20059;-82
2022/06/19 10:47:29;;;;;;;1.00;0.50;;;32.00;77.90;;;;;;4966474;28;20046;-84
2022/06/19 10:50:07;;;;;;;1.25;0.50;;;31.90;78.10;;;;;;4956645;28;20051;-86
2022/06/19 10:52:46;;;;;;;2.67;0.50;;;31.90;78.30;;;;;;4951254;28;20054;-80
2022/06/19 10:55:27;;;;;;;1.60;0.52;;;31.90;78.50;;;;;;4965587;28;20066;-81
2022/06/19 10:58:06;;;;;;;0.73;0.70;;;32.20;78.40;;;;;;4947491;28;20695;-81
2022/06/19 11:00:34;;;;;;;2.85;0.65;;;32.40;77.90;;;;;;4961483;28;20043;-82
2022/06/19 11:05:58;;;;;;;1.05;0.82;;;32.70;76.00;;;;;;4962171;28;20138;-81
2022/06/19 11:08:29;;;;;;;1.60;0.90;;;32.70;76.80;;;;;;4966608;28;20047;-83
2022/06/19 11:10:59;;;;;;;2.67;0.80;;;32.80;76.90;;;;;;4968695;28;20129;-84
2022/06/19 11:13:56;;;;;;;0.60;0.57;;;33.00;77.70;;;;;;4968977;28;20449;-83
2022/06/19 11:16:25;;;;;;;1.50;0.73;;;33.30;76.40;;;;;;4970934;28;20046;-83
2022/06/19 11:18:54;;;;;;;1.80;0.68;;;33.30;75.40;;;;;;4951687;28;20042;-84
2022/06/19 11:21:25;;;;;;;1.55;0.70;;;33.20;75.20;;;;;;4952585;28;20047;-83
2022/06/19 11:23:56;;;;;;;2.35;0.60;;;33.10;74.70;;;;;;4968070;28;20046;-83
2022/06/19 11:26:34;;;;;;;0.77;0.57;;;33.20;75.00;;;;;;4933152;28;20062;-79
2022/06/19 11:29:09;;;;;;;0.73;0.60;;;33.20;75.40;;;;;;4962988;28;20753;-80
2022/06/19 11:31:58;;;;;;;2.35;0.95;;;33.20;74.10;;;;;;4949627;28;20580;-80
2022/06/19 11:34:51;;;;;;;1.73;0.80;;;33.20;74.20;;;;;;4964567;28;20051;-80
2022/06/19 11:37:22;;;;;;;2.15;0.85;;;33.40;74.50;;;;;;4967277;28;20039;-80
2022/06/19 11:39:54;;;;;;;0.95;0.60;;;33.50;74.80;;;;;;4950641;28;20137;-80
2022/06/19 11:42:30;;;;;;;2.47;0.63;;;33.70;74.90;;;;;;4948459;28;20038;-80
2022/06/19 11:45:03;;;;;;;0.70;0.65;;;33.70;74.30;;;;;;4966823;28;20133;-79
2022/06/19 11:47:35;;;;;;;2.67;0.93;;;33.90;74.60;;;;;;4965985;28;20098;-81
2022/06/19 11:50:19;;;;;;;1.42;0.60;;;33.90;74.10;;;;;;4964318;28;20042;-80
2022/06/19 11:52:51;;;;;;;2.33;0.60;;;34.10;74.50;;;;;;4950173;28;20041;-80
2022/06/19 11:55:27;;;;;;;1.10;0.60;;;34.20;74.40;;;;;;4967933;28;20049;-81
2022/06/19 11:57:57;;;;;;;3.97;0.88;;;34.30;74.40;;;;;;4951661;28;20046;-82
2022/06/19 12:00:31;;;;;;;3.97;0.75;;;34.50;73.90;;;;;;4951358;28;20054;-82
2022/06/19 12:03:03;;;;;;;8.32;0.90;;;34.30;73.30;;;;;;4967636;28;20043;-84
2022/06/19 12:05:38;;;;;;;1.80;0.60;;;34.40;73.70;;;;;;4955757;28;20054;-80
2022/06/19 12:08:16;;;;;;;3.35;0.88;;;34.50;73.80;;;;;;4965636;28;20142;-80
2022/06/19 12:10:51;;;;;;;1.95;0.60;;;34.60;73.60;;;;;;4939837;28;20057;-78
2022/06/19 12:13:22;;;;;;;2.70;0.80;;;34.80;72.80;;;;;;4969951;28;20051;-78
2022/06/19 12:16:01;;;;;;;3.63;0.80;;;34.90;72.00;;;;;;4953303;28;20058;-78
2022/06/19 12:18:32;;;;;;;2.88;1.75;;;34.90;70.70;;;;;;4969975;28;20411;-82
2022/06/19 12:21:04;;;;;;;1.10;0.80;;;34.80;72.00;;;;;;4967299;28;20318;-82
2022/06/19 12:23:40;;;;;;;1.23;0.90;;;34.80;71.10;;;;;;4968539;28;20078;-80
2022/06/19 12:26:11;;;;;;;1.40;0.60;;;34.70;71.30;;;;;;4953689;28;20412;-80
2022/06/19 12:28:45;;;;;;;1.38;0.68;;;34.80;71.60;;;;;;4964351;28;20664;-80
2022/06/19 12:31:17;;;;;;;3.65;0.88;;;34.90;72.00;;;;;;4965726;28;20401;-80
2022/06/19 12:33:49;;;;;;;2.05;0.70;;;35.10;71.90;;;;;;4965233;28;20046;-80
2022/06/19 12:36:19;;;;;;;1.83;0.80;;;35.20;71.10;;;;;;4948636;28;20134;-79
2022/06/19 12:38:49;;;;;;;2.70;0.88;;;35.20;71.90;;;;;;4950613;28;20097;-82
2022/06/19 12:41:34;;;;;;;2.63;0.85;;;35.00;70.40;;;;;;4950083;28;20090;-89
2022/06/19 12:44:20;;;;;;;3.37;1.17;;;34.90;70.90;;;;;;4962395;28;20055;-86
2022/06/19 12:47:01;;;;;;;1.63;0.77;;;35.00;70.40;;;;;;4948367;28;20306;-78
2022/06/19 12:50:00;;;;;;;1.55;0.70;;;35.20;71.50;;;;;;4966362;28;20070;-78
2022/06/19 12:52:35;;;;;;;1.98;0.90;;;35.40;71.20;;;;;;4972847;28;20049;-83
2022/06/19 12:55:24;;;;;;;3.85;0.82;;;35.60;70.90;;;;;;4953031;28;20062;-81
2022/06/19 12:58:15;;;;;;;2.95;0.90;;;35.70;70.20;;;;;;4966482;28;20051;-82
2022/06/19 13:00:49;;;;;;;1.35;1.17;;;35.90;70.40;;;;;;4964767;28;20054;-78
2022/06/19 13:03:44;;;;;;;3.30;0.90;;;36.00;69.70;;;;;;4950383;28;20504;-76
2022/06/19 13:06:23;;;;;;;3.22;0.80;;;36.30;70.10;;;;;;4928324;28;20137;-79
2022/06/19 13:09:14;;;;;;;3.80;1.08;;;36.60;70.10;;;;;;4965997;28;20124;-78
2022/06/19 13:11:50;;;;;;;3.53;0.73;;;36.90;70.30;;;;;;4948698;28;20389;-80
2022/06/19 13:14:33;;;;;;;;;;;37.00;69.10;;;;;;4961745;28;20468;-77
2022/06/19 13:17:07;;;;;;;2.10;0.75;;;37.10;68.20;;;;;;4964842;28;20997;-77
2022/06/19 13:19:52;;;;;;;2.40;0.77;;;37.00;67.60;;;;;;4966557;28;20066;-76
2022/06/19 13:22:26;;;;;;;4.15;0.80;;;36.90;67.80;;;;;;4969326;28;20106;-81
2022/06/19 13:25:05;;;;;;;1.83;0.80;;;36.90;67.10;;;;;;4949940;28;20054;-81
2022/06/19 13:27:45;;;;;;;2.58;0.88;;;36.90;67.40;;;;;;4965773;28;20046;-78